Time;durP1;ratioP1;P1;durP2;ratioP2;P2;SDS_P1;SDS_P2;PMS_P1;PMS_P2;Temp;Humidity;BMP_temperature;BMP_pressure;BME280_temperature;BME280_humidity;BME280_pressure;Samples;Min_cycle;Max_cycle;Signal;HPM_P1;HPM_P2
2021/07/19 00:01:47;;;;;;;1.60;0.32;;;;;;;-142.37;100.00;59669.53;5013688;28;20459;-69
2021/07/19 00:04:12;;;;;;;0.60;0.10;;;;;;;-142.37;100.00;59669.53;5013838;28;20080;-67
2021/07/19 00:06:37;;;;;;;0.63;0.40;;;;;;;-142.37;100.00;59669.53;5013716;28;20469;-67
2021/07/19 00:09:04;;;;;;;1.10;0.43;;;;;;;-142.37;100.00;59669.53;5013579;28;20028;-67
2021/07/19 00:11:30;;;;;;;0.70;0.30;;;;;;;-142.37;100.00;59669.53;5013701;28;20104;-66
2021/07/19 00:13:56;;;;;;;2.35;0.52;;;;;;;-142.37;100.00;59669.53;5013762;28;20085;-65
2021/07/19 00:16:22;;;;;;;2.08;0.90;;;;;;;-142.37;100.00;59669.53;5013450;28;20441;-65
2021/07/19 00:18:48;;;;;;;0.30;0.28;;;;;;;-142.37;100.00;59669.53;4999336;28;20097;-65
2021/07/19 00:21:13;;;;;;;0.95;0.35;;;;;;;-142.37;100.00;59669.53;4994700;28;20053;-66
2021/07/19 00:23:39;;;;;;;0.70;0.50;;;;;;;-142.37;100.00;59669.53;5000457;28;20350;-67
2021/07/19 00:26:04;;;;;;;1.33;0.32;;;;;;;-142.37;100.00;59669.53;5000366;28;20094;-66
2021/07/19 00:28:30;;;;;;;1.40;0.50;;;;;;;-142.37;100.00;59669.53;5000138;28;20042;-68
2021/07/19 00:30:58;;;;;;;0.75;0.30;;;;;;;-142.37;100.00;59669.53;5000349;28;20045;-68
2021/07/19 00:33:24;;;;;;;3.13;0.28;;;;;;;-142.37;100.00;59669.53;5000631;28;20026;-68
2021/07/19 00:35:51;;;;;;;0.45;0.35;;;;;;;-142.37;100.00;59669.53;5013014;28;20032;-68
2021/07/19 00:38:17;;;;;;;0.73;0.30;;;;;;;-142.37;100.00;59669.53;5019664;28;20105;-68
2021/07/19 00:40:42;;;;;;;1.75;0.30;;;;;;;-142.37;100.00;59669.53;5019926;28;20108;-66
2021/07/19 00:43:08;;;;;;;1.40;0.30;;;;;;;-142.37;100.00;59669.53;5019516;28;20028;-67
2021/07/19 00:45:35;;;;;;;1.63;0.20;;;;;;;-142.37;100.00;59669.53;5020001;28;20022;-67
2021/07/19 00:48:03;;;;;;;0.50;0.30;;;;;;;-142.37;100.00;59669.53;5002133;28;20029;-66
2021/07/19 00:50:32;;;;;;;0.50;0.17;;;;;;;-142.37;100.00;59669.53;5019832;28;20025;-66
2021/07/19 00:52:58;;;;;;;0.38;0.17;;;;;;;-142.37;100.00;59669.53;5019798;28;20022;-67
2021/07/19 00:55:32;;;;;;;2.38;0.30;;;;;;;-142.37;100.00;59669.53;5019715;28;20419;-65
2021/07/19 00:58:00;;;;;;;1.20;0.30;;;;;;;-142.37;100.00;59669.53;5019590;28;20026;-65
2021/07/19 01:00:26;;;;;;;1.27;0.22;;;;;;;-142.37;100.00;59669.53;5019160;28;20045;-65
2021/07/19 01:02:54;;;;;;;1.13;0.40;;;;;;;-142.37;100.00;59669.53;5002203;28;20025;-66
2021/07/19 01:05:19;;;;;;;0.68;0.38;;;;;;;-142.37;100.00;59669.53;5019455;28;20571;-67
2021/07/19 01:07:47;;;;;;;2.15;0.70;;;;;;;-142.37;100.00;59669.53;5019901;28;20037;-68
2021/07/19 01:10:19;;;;;;;1.23;0.20;;;;;;;-142.37;100.00;59669.53;5019410;28;20492;-67
2021/07/19 01:12:55;;;;;;;2.85;0.40;;;;;;;-142.37;100.00;59669.53;5019903;28;20026;-67
2021/07/19 01:15:28;;;;;;;1.05;0.43;;;;;;;-142.37;100.00;59669.53;5019550;28;20072;-67
2021/07/19 01:17:54;;;;;;;0.98;0.25;;;;;;;-142.37;100.00;59669.53;5012313;28;20022;-68
2021/07/19 01:20:36;;;;;;;1.02;0.40;;;;;;;-142.37;100.00;59669.53;4999758;28;20057;-68
2021/07/19 01:23:26;;;;;;;1.25;0.20;;;;;;;-142.37;100.00;59669.53;4999678;28;20037;-67
2021/07/19 01:26:02;;;;;;;1.40;0.20;;;;;;;-142.37;100.00;59669.53;4999542;28;20034;-67
2021/07/19 01:28:58;;;;;;;1.38;0.40;;;;;;;-142.37;100.00;59669.53;4982221;28;20507;-68
2021/07/19 01:31:38;;;;;;;1.48;0.47;;;;;;;-142.37;100.00;59669.53;4958678;28;20039;-67
2021/07/19 01:34:06;;;;;;;0.77;0.20;;;;;;;-142.37;100.00;59669.53;4955299;28;20043;-67
2021/07/19 01:36:34;;;;;;;0.65;0.35;;;;;;;-142.37;100.00;59669.53;4955897;29;20078;-66
2021/07/19 01:39:00;;;;;;;1.95;0.30;;;;;;;-142.37;100.00;59669.53;4955551;29;20043;-67
2021/07/19 01:41:27;;;;;;;0.77;0.40;;;;;;;-142.37;100.00;59669.53;4942196;28;20035;-68
2021/07/19 01:43:56;;;;;;;2.58;0.30;;;;;;;-142.37;100.00;59669.53;4936230;29;20035;-67
2021/07/19 01:46:22;;;;;;;0.70;0.30;;;;;;;-142.37;100.00;59669.53;4936266;29;20106;-67
2021/07/19 01:48:48;;;;;;;0.50;0.38;;;;;;;-142.37;100.00;59669.53;4936069;28;20040;-66
2021/07/19 01:51:14;;;;;;;1.85;0.65;;;;;;;-142.37;100.00;59669.53;4935922;29;20031;-67
2021/07/19 01:53:41;;;;;;;0.75;0.20;;;;;;;-142.37;100.00;59669.53;4936411;29;20119;-65
2021/07/19 01:56:07;;;;;;;0.98;0.10;;;;;;;-142.37;100.00;59669.53;4935947;29;20075;-66
2021/07/19 01:58:33;;;;;;;0.50;0.10;;;;;;;-142.37;100.00;59669.53;4936147;29;20051;-67
2021/07/19 02:00:58;;;;;;;0.52;0.30;;;;;;;-142.37;100.00;59669.53;4919952;29;20036;-67
2021/07/19 02:03:24;;;;;;;0.75;0.30;;;;;;;-142.37;100.00;59669.53;4935883;29;20031;-66
2021/07/19 02:05:55;;;;;;;2.05;0.20;;;;;;;-142.37;100.00;59669.53;4936354;29;20028;-67
2021/07/19 02:08:22;;;;;;;0.47;0.30;;;;;;;-142.37;100.00;59669.53;4965930;28;20047;-66
2021/07/19 02:10:49;;;;;;;0.63;0.30;;;;;;;-142.37;100.00;59669.53;4976712;28;20026;-67
2021/07/19 02:13:17;;;;;;;0.82;0.28;;;;;;;-142.37;100.00;59669.53;4976532;28;20109;-68
2021/07/19 02:15:43;;;;;;;0.20;0.20;;;;;;;-142.37;100.00;59669.53;4976491;28;20065;-66
2021/07/19 02:18:12;;;;;;;0.40;0.20;;;;;;;-142.37;100.00;59669.53;4975269;28;20474;-66
2021/07/19 02:20:38;;;;;;;1.90;0.63;;;;;;;-142.37;100.00;59669.53;4964324;28;20169;-68
2021/07/19 02:23:05;;;;;;;1.27;0.52;;;;;;;-142.37;100.00;59669.53;4956945;28;20020;-67
2021/07/19 02:25:32;;;;;;;1.73;0.20;;;;;;;-142.37;100.00;59669.53;4957483;28;20063;-67
2021/07/19 02:27:59;;;;;;;1.27;0.30;;;;;;;-142.37;100.00;59669.53;4957684;28;20096;-66
2021/07/19 02:30:28;;;;;;;2.22;0.32;;;;;;;-142.37;100.00;59669.53;4957237;28;20074;-67
2021/07/19 02:32:58;;;;;;;0.60;0.22;;;;;;;-142.37;100.00;59669.53;4957342;28;20146;-66
2021/07/19 02:35:28;;;;;;;0.68;0.30;;;;;;;-142.37;100.00;59669.53;4957180;28;20110;-67
2021/07/19 02:37:58;;;;;;;1.13;0.40;;;;;;;-142.37;100.00;59669.53;4957074;28;20467;-67
2021/07/19 02:40:24;;;;;;;0.57;0.30;;;;;;;-142.37;100.00;59669.53;4957089;29;20038;-66
2021/07/19 02:42:55;;;;;;;2.08;0.30;;;;;;;-142.37;100.00;59669.53;4957269;28;20039;-66
2021/07/19 02:45:21;;;;;;;0.30;0.30;;;;;;;-142.37;100.00;59669.53;4956550;28;20027;-66
2021/07/19 02:47:50;;;;;;;3.42;0.50;;;;;;;-142.37;100.00;59669.53;4956972;28;20027;-66
2021/07/19 02:50:21;;;;;;;0.90;0.30;;;;;;;-142.37;100.00;59669.53;4956948;28;20027;-66
2021/07/19 02:52:49;;;;;;;0.60;0.17;;;;;;;-142.37;100.00;59669.53;4957413;28;20036;-67
2021/07/19 02:55:15;;;;;;;1.05;0.35;;;;;;;-142.37;100.00;59669.53;4956804;28;20027;-67
2021/07/19 02:57:41;;;;;;;1.67;0.20;;;;;;;-142.37;100.00;59669.53;4956929;28;20039;-67
2021/07/19 03:00:09;;;;;;;0.98;0.28;;;;;;;-142.37;100.00;59669.53;4971808;28;20048;-68
2021/07/19 03:02:39;;;;;;;0.35;0.20;;;;;;;-142.37;100.00;59669.53;4975962;28;20033;-68
2021/07/19 03:05:10;;;;;;;1.15;0.20;;;;;;;-142.37;100.00;59669.53;4976004;28;20026;-68
2021/07/19 03:07:37;;;;;;;0.60;0.20;;;;;;;-142.37;100.00;59669.53;4976003;28;20029;-69
2021/07/19 03:10:05;;;;;;;1.15;0.40;;;;;;;-142.37;100.00;59669.53;4975854;28;20027;-69
2021/07/19 03:12:35;;;;;;;1.75;0.30;;;;;;;-142.37;100.00;59669.53;4975797;28;20529;-69
2021/07/19 03:15:00;;;;;;;1.15;0.40;;;;;;;-142.37;100.00;59669.53;4975747;28;20039;-67
2021/07/19 03:17:26;;;;;;;1.70;0.68;;;;;;;-142.37;100.00;59669.53;4978929;28;20022;-68
2021/07/19 03:19:55;;;;;;;0.47;0.10;;;;;;;-142.37;100.00;59669.53;4994139;28;20022;-67
2021/07/19 03:22:22;;;;;;;1.35;0.40;;;;;;;-142.37;100.00;59669.53;4995042;28;20022;-66
2021/07/19 03:24:50;;;;;;;1.20;0.50;;;;;;;-142.37;100.00;59669.53;4995120;28;20031;-66
2021/07/19 03:27:16;;;;;;;3.92;0.68;;;;;;;-142.37;100.00;59669.53;4995041;28;20472;-67
2021/07/19 03:29:43;;;;;;;1.75;0.20;;;;;;;-142.37;100.00;59669.53;4994778;28;20357;-67
2021/07/19 03:32:09;;;;;;;0.90;0.40;;;;;;;-142.37;100.00;59669.53;4989984;28;20037;-66
2021/07/19 03:34:38;;;;;;;1.15;0.28;;;;;;;-142.37;100.00;59669.53;4989601;28;20026;-67
2021/07/19 03:37:04;;;;;;;0.90;0.30;;;;;;;-142.37;100.00;59669.53;4984384;28;20110;-66
2021/07/19 03:39:31;;;;;;;0.30;0.13;;;;;;;-142.37;100.00;59669.53;4993556;28;20030;-67
2021/07/19 03:41:57;;;;;;;0.50;0.15;;;;;;;-142.37;100.00;59669.53;4980494;28;20534;-67
2021/07/19 03:44:25;;;;;;;1.98;0.28;;;;;;;-142.37;100.00;59669.53;4975182;28;20073;-69
2021/07/19 03:46:57;;;;;;;0.32;0.10;;;;;;;-142.37;100.00;59669.53;4975322;28;20034;-69
2021/07/19 03:49:23;;;;;;;0.93;0.30;;;;;;;-142.37;100.00;59669.53;4975167;28;20026;-70
2021/07/19 03:51:50;;;;;;;1.35;0.40;;;;;;;-142.37;100.00;59669.53;4975205;28;20035;-69
2021/07/19 03:54:16;;;;;;;1.52;0.30;;;;;;;-142.37;100.00;59669.53;5009366;28;20026;-69
2021/07/19 03:56:43;;;;;;;0.40;0.10;;;;;;;-142.37;100.00;59669.53;5008286;28;20020;-68
2021/07/19 03:59:10;;;;;;;0.85;0.30;;;;;;;-142.37;100.00;59669.53;5003197;28;20057;-66
2021/07/19 04:01:37;;;;;;;0.57;0.20;;;;;;;-142.37;100.00;59669.53;4994775;28;20061;-66
2021/07/19 04:04:07;;;;;;;0.32;0.10;;;;;;;-142.37;100.00;59669.53;4995726;28;20029;-66
2021/07/19 04:06:33;;;;;;;0.25;0.10;;;;;;;-142.37;100.00;59669.53;5013013;28;20355;-66
2021/07/19 04:08:59;;;;;;;0.57;0.10;;;;;;;-142.37;100.00;59669.53;5013605;28;20026;-66
2021/07/19 04:11:26;;;;;;;1.50;0.30;;;;;;;-142.37;100.00;59669.53;5013363;28;20367;-67
2021/07/19 04:13:53;;;;;;;0.55;0.30;;;;;;;-142.37;100.00;59669.53;5013201;28;20108;-66
2021/07/19 04:16:19;;;;;;;0.20;0.10;;;;;;;-142.37;100.00;59669.53;5013374;28;20022;-66
2021/07/19 04:18:48;;;;;;;1.23;0.52;;;;;;;-142.37;100.00;59669.53;4999591;28;20030;-66
2021/07/19 04:21:14;;;;;;;1.17;0.50;;;;;;;-142.37;100.00;59669.53;4993475;28;20030;-66
2021/07/19 04:23:41;;;;;;;1.95;0.30;;;;;;;-142.37;100.00;59669.53;4976239;28;20068;-65
2021/07/19 04:26:06;;;;;;;0.93;0.20;;;;;;;-142.37;100.00;59669.53;4993672;28;20101;-66
2021/07/19 04:28:33;;;;;;;0.63;0.40;;;;;;;-142.37;100.00;59669.53;4993541;28;20078;-66
2021/07/19 04:31:00;;;;;;;0.70;0.20;;;;;;;-142.37;100.00;59669.53;4993446;28;20225;-66
2021/07/19 04:33:26;;;;;;;0.40;0.30;;;;;;;-142.37;100.00;59669.53;4993628;28;20369;-66
2021/07/19 04:35:51;;;;;;;0.47;0.20;;;;;;;-142.37;100.00;59669.53;4993669;28;20036;-66
2021/07/19 04:38:19;;;;;;;0.50;0.22;;;;;;;-142.37;100.00;59669.53;4993501;28;20425;-66
2021/07/19 04:40:46;;;;;;;0.75;0.40;;;;;;;-142.37;100.00;59669.53;4993516;28;20081;-65
2021/07/19 04:43:14;;;;;;;0.57;0.20;;;;;;;-142.37;100.00;59669.53;4993201;28;20026;-66
2021/07/19 04:45:39;;;;;;;2.88;0.40;;;;;;;-142.37;100.00;59669.53;4993494;28;20367;-66
2021/07/19 04:48:05;;;;;;;0.63;0.30;;;;;;;-142.37;100.00;59669.53;5006927;28;20028;-66
2021/07/19 04:50:30;;;;;;;0.43;0.20;;;;;;;-142.37;100.00;59669.53;5013045;28;20059;-66
2021/07/19 04:52:55;;;;;;;0.77;0.38;;;;;;;-142.37;100.00;59669.53;5013084;28;20389;-66
2021/07/19 04:55:23;;;;;;;1.38;0.30;;;;;;;-142.37;100.00;59669.53;5012658;28;20022;-65
2021/07/19 04:57:52;;;;;;;0.95;0.20;;;;;;;-142.37;100.00;59669.53;5012273;28;20076;-66
2021/07/19 05:00:18;;;;;;;0.10;0.10;;;;;;;-142.37;100.00;59669.53;4998478;28;20054;-66
2021/07/19 05:02:46;;;;;;;0.30;0.17;;;;;;;-142.37;100.00;59669.53;4993319;28;20032;-66
2021/07/19 05:05:17;;;;;;;0.95;0.17;;;;;;;-142.37;100.00;59669.53;4993427;28;20385;-66
2021/07/19 05:07:45;;;;;;;0.95;0.20;;;;;;;-142.37;100.00;59669.53;4993908;28;20030;-66
2021/07/19 05:10:13;;;;;;;0.40;0.25;;;;;;;-142.37;100.00;59669.53;4979484;28;20038;-66
2021/07/19 05:12:44;;;;;;;1.63;0.10;;;;;;;-142.37;100.00;59669.53;4996742;28;20293;-66
2021/07/19 05:15:13;;;;;;;0.65;0.10;;;;;;;-142.37;100.00;59669.53;4996733;28;20026;-66
2021/07/19 05:17:42;;;;;;;0.40;0.10;;;;;;;-142.37;100.00;59669.53;5001791;28;20038;-65
2021/07/19 05:20:09;;;;;;;1.08;0.10;;;;;;;-142.37;100.00;59669.53;5014083;28;20037;-66
2021/07/19 05:22:34;;;;;;;1.45;0.20;;;;;;;-142.37;100.00;59669.53;5008355;28;20101;-65
2021/07/19 05:24:59;;;;;;;0.35;0.22;;;;;;;-142.37;100.00;59669.53;4996555;28;20081;-65
2021/07/19 05:27:25;;;;;;;1.08;0.35;;;;;;;-142.37;100.00;59669.53;4996514;28;20473;-66
2021/07/19 05:29:51;;;;;;;0.47;0.20;;;;;;;-142.37;100.00;59669.53;4996756;28;20026;-66
2021/07/19 05:32:16;;;;;;;0.50;0.30;;;;;;;-142.37;100.00;59669.53;4996518;28;20462;-66
2021/07/19 05:34:41;;;;;;;3.45;0.80;;;;;;;-142.37;100.00;59669.53;4996274;28;20034;-66
2021/07/19 05:37:07;;;;;;;1.30;0.28;;;;;;;-142.37;100.00;59669.53;4996245;28;20481;-66
2021/07/19 05:39:32;;;;;;;0.40;0.30;;;;;;;-142.37;100.00;59669.53;4996622;28;20752;-66
2021/07/19 05:41:58;;;;;;;0.40;0.10;;;;;;;-142.37;100.00;59669.53;4996461;28;20049;-66
2021/07/19 05:44:23;;;;;;;0.40;0.20;;;;;;;-142.37;100.00;59669.53;4996434;28;20033;-66
2021/07/19 05:46:48;;;;;;;0.43;0.30;;;;;;;-142.37;100.00;59669.53;4996580;28;20026;-66
2021/07/19 05:49:14;;;;;;;2.00;0.10;;;;;;;-142.37;100.00;59669.53;4995996;28;20667;-66
2021/07/19 05:51:39;;;;;;;0.60;0.20;;;;;;;-142.37;100.00;59669.53;4996351;28;20034;-66
2021/07/19 05:54:05;;;;;;;0.25;0.25;;;;;;;-142.37;100.00;59669.53;4996061;28;20468;-66
2021/07/19 05:56:34;;;;;;;0.63;0.15;;;;;;;-142.37;100.00;59669.53;4996356;28;20108;-66
2021/07/19 05:58:59;;;;;;;0.40;0.30;;;;;;;-142.37;100.00;59669.53;4996138;28;20054;-66
2021/07/19 06:01:25;;;;;;;1.70;0.40;;;;;;;-142.37;100.00;59669.53;4996003;28;20466;-66
2021/07/19 06:03:50;;;;;;;0.70;0.30;;;;;;;-142.37;100.00;59669.53;4996148;28;20026;-66
2021/07/19 06:06:15;;;;;;;0.20;0.10;;;;;;;-142.37;100.00;59669.53;4995269;28;20018;-65
2021/07/19 06:08:41;;;;;;;1.63;0.22;;;;;;;-142.37;100.00;59669.53;4996416;28;20069;-66
2021/07/19 06:11:06;;;;;;;0.40;0.10;;;;;;;-142.37;100.00;59669.53;4997501;28;20076;-67
2021/07/19 06:13:31;;;;;;;1.90;0.43;;;;;;;-142.37;100.00;59669.53;5015563;28;20022;-67
2021/07/19 06:15:56;;;;;;;0.40;0.20;;;;;;;-142.37;100.00;59669.53;5006588;28;20373;-67
2021/07/19 06:18:22;;;;;;;0.88;0.20;;;;;;;-142.37;100.00;59669.53;5005407;28;20057;-66
2021/07/19 06:20:47;;;;;;;1.00;0.40;;;;;;;-142.37;100.00;59669.53;5014764;28;20026;-66
2021/07/19 06:23:13;;;;;;;0.57;0.30;;;;;;;-142.37;100.00;59669.53;5015113;28;20538;-66
2021/07/19 06:25:42;;;;;;;0.90;0.43;;;;;;;-142.37;100.00;59669.53;5015264;28;20056;-66
2021/07/19 06:28:08;;;;;;;0.88;0.30;;;;;;;-142.37;100.00;59669.53;5015015;28;20022;-66
2021/07/19 06:30:34;;;;;;;0.22;0.20;;;;;;;-142.37;100.00;59669.53;5012773;28;20033;-66
2021/07/19 06:32:59;;;;;;;0.15;0.10;;;;;;;-142.37;100.00;59669.53;5003446;28;20038;-66
2021/07/19 06:35:25;;;;;;;1.75;0.20;;;;;;;-142.37;100.00;59669.53;4996944;28;20018;-66
2021/07/19 06:37:51;;;;;;;1.90;0.63;;;;;;;-142.37;100.00;59669.53;4995294;28;20030;-66
2021/07/19 06:40:17;;;;;;;0.47;0.10;;;;;;;-142.37;100.00;59669.53;4996147;28;20026;-66
2021/07/19 06:42:42;;;;;;;0.63;0.10;;;;;;;-142.37;100.00;59669.53;4999744;28;20687;-66
2021/07/19 06:45:10;;;;;;;1.25;0.20;;;;;;;-142.37;100.00;59669.53;5014587;28;20026;-66
2021/07/19 06:47:35;;;;;;;0.50;0.17;;;;;;;-142.37;100.00;59669.53;5014543;28;20469;-66
2021/07/19 06:50:03;;;;;;;0.82;0.13;;;;;;;-142.37;100.00;59669.53;5010648;28;20041;-66
2021/07/19 06:52:28;;;;;;;1.08;0.40;;;;;;;-142.37;100.00;59669.53;5013133;28;20029;-67
2021/07/19 06:54:54;;;;;;;0.82;0.20;;;;;;;-142.37;100.00;59669.53;5003555;28;20469;-67
2021/07/19 06:57:20;;;;;;;0.40;0.13;;;;;;;-142.37;100.00;59669.53;5014042;28;20025;-67
2021/07/19 06:59:45;;;;;;;0.82;0.30;;;;;;;-142.37;100.00;59669.53;5014241;28;20054;-67
2021/07/19 07:02:11;;;;;;;0.88;0.25;;;;;;;-142.37;100.00;59669.53;5014131;28;20033;-68
2021/07/19 07:04:45;;;;;;;0.55;0.25;;;;;;;-142.37;100.00;59669.53;5014209;28;20029;-69
2021/07/19 07:07:11;;;;;;;1.38;0.28;;;;;;;-142.37;100.00;59669.53;5013358;28;20061;-66
2021/07/19 07:09:37;;;;;;;0.75;0.20;;;;;;;-142.37;100.00;59669.53;5009402;28;20432;-64
2021/07/19 07:12:03;;;;;;;0.93;0.20;;;;;;;-142.37;100.00;59669.53;5013221;28;20068;-66
2021/07/19 07:14:28;;;;;;;0.95;0.32;;;;;;;-142.37;100.00;59669.53;5008897;28;20034;-66
2021/07/19 07:16:54;;;;;;;0.43;0.30;;;;;;;-142.37;100.00;59669.53;5003055;28;20487;-66
2021/07/19 07:19:19;;;;;;;0.88;0.13;;;;;;;-142.37;100.00;59669.53;5008259;28;20057;-65
2021/07/19 07:21:44;;;;;;;0.25;0.15;;;;;;;-142.37;100.00;59669.53;5012030;28;20026;-65
2021/07/19 07:24:10;;;;;;;0.55;0.20;;;;;;;-142.37;100.00;59669.53;5013268;28;20029;-65
2021/07/19 07:26:35;;;;;;;0.80;0.28;;;;;;;-142.37;100.00;59669.53;5011997;28;20026;-65
2021/07/19 07:29:00;;;;;;;0.57;0.20;;;;;;;-142.37;100.00;59669.53;5012614;28;20373;-64
2021/07/19 07:31:28;;;;;;;1.00;0.38;;;;;;;-142.37;100.00;59669.53;5010302;28;20056;-64
2021/07/19 07:33:57;;;;;;;0.38;0.20;;;;;;;-142.37;100.00;59669.53;5009475;28;20025;-65
2021/07/19 07:36:24;;;;;;;1.08;0.30;;;;;;;-142.37;100.00;59669.53;5008561;28;20027;-64
2021/07/19 07:38:50;;;;;;;0.45;0.15;;;;;;;-142.37;100.00;59669.53;5008596;28;20034;-64
2021/07/19 07:41:16;;;;;;;0.73;0.13;;;;;;;-142.37;100.00;59669.53;4995196;28;20116;-64
2021/07/19 07:43:41;;;;;;;0.20;0.20;;;;;;;-142.37;100.00;59669.53;4983448;28;20061;-64
2021/07/19 07:46:07;;;;;;;1.55;0.30;;;;;;;-142.37;100.00;59669.53;4994501;28;20029;-65
2021/07/19 07:48:32;;;;;;;0.35;0.20;;;;;;;-142.37;100.00;59669.53;5006775;28;20550;-65
2021/07/19 07:50:59;;;;;;;0.50;0.22;;;;;;;-142.37;100.00;59669.53;5009386;28;20021;-65
2021/07/19 07:53:24;;;;;;;1.02;0.40;;;;;;;-142.37;100.00;59669.53;5011097;28;20030;-65
2021/07/19 07:55:49;;;;;;;0.47;0.30;;;;;;;-142.37;100.00;59669.53;5006022;28;20049;-65
2021/07/19 07:58:15;;;;;;;0.47;0.30;;;;;;;-142.37;100.00;59669.53;4993647;28;20144;-64
2021/07/19 08:00:41;;;;;;;0.55;0.30;;;;;;;-142.37;100.00;59669.53;5008432;28;20030;-64
2021/07/19 08:03:06;;;;;;;1.45;0.45;;;;;;;-142.37;100.00;59669.53;5012724;28;20147;-64
2021/07/19 08:05:32;;;;;;;0.40;0.28;;;;;;;-142.37;100.00;59669.53;5013536;28;20153;-64
2021/07/19 08:07:57;;;;;;;0.30;0.17;;;;;;;-142.37;100.00;59669.53;5011995;28;20106;-64
2021/07/19 08:10:23;;;;;;;0.50;0.30;;;;;;;-142.37;100.00;59669.53;4998144;28;20057;-65
2021/07/19 08:12:48;;;;;;;1.35;0.30;;;;;;;-142.37;100.00;59669.53;4993785;28;20037;-66
2021/07/19 08:15:16;;;;;;;1.80;0.32;;;;;;;-142.37;100.00;59669.53;4993583;28;20369;-66
2021/07/19 08:17:41;;;;;;;0.43;0.30;;;;;;;-142.37;100.00;59669.53;5003561;28;20539;-66
2021/07/19 08:20:07;;;;;;;1.67;0.35;;;;;;;-142.37;100.00;59669.53;5008742;28;20109;-66
2021/07/19 08:22:33;;;;;;;1.65;0.60;;;;;;;-142.37;100.00;59669.53;4998557;28;20029;-66
2021/07/19 08:24:58;;;;;;;1.77;0.57;;;;;;;-142.37;100.00;59669.53;5008695;28;20049;-65
2021/07/19 08:27:25;;;;;;;0.50;0.40;;;;;;;-142.37;100.00;59669.53;4997721;28;20022;-65
2021/07/19 08:29:51;;;;;;;1.88;0.35;;;;;;;-142.37;100.00;59669.53;4996278;28;20038;-66
2021/07/19 08:32:17;;;;;;;1.17;0.30;;;;;;;-142.37;100.00;59669.53;4994932;28;20029;-65
2021/07/19 08:34:45;;;;;;;0.38;0.22;;;;;;;-142.37;100.00;59669.53;5004182;28;20117;-64
2021/07/19 08:37:10;;;;;;;0.47;0.30;;;;;;;-142.37;100.00;59669.53;5005825;28;20064;-65
2021/07/19 08:39:36;;;;;;;1.15;0.63;;;;;;;-142.37;100.00;59669.53;4997986;28;20069;-65
2021/07/19 08:42:01;;;;;;;1.48;0.40;;;;;;;-142.37;100.00;59669.53;5007358;28;20048;-65
2021/07/19 08:44:27;;;;;;;0.50;0.30;;;;;;;-142.37;100.00;59669.53;5007338;28;20515;-65
2021/07/19 08:46:52;;;;;;;0.25;0.25;;;;;;;-142.37;100.00;59669.53;5016589;28;20034;-65
2021/07/19 08:49:18;;;;;;;0.50;0.45;;;;;;;-142.37;100.00;59669.53;5017066;28;20033;-65
2021/07/19 08:51:44;;;;;;;1.23;0.57;;;;;;;-142.37;100.00;59669.53;5012197;28;20028;-65
2021/07/19 08:54:11;;;;;;;0.85;0.68;;;;;;;-142.37;100.00;59669.53;4982507;28;20061;-65
2021/07/19 08:56:38;;;;;;;0.40;0.40;;;;;;;-142.37;100.00;59669.53;5004071;28;20039;-65
2021/07/19 08:59:06;;;;;;;0.70;0.50;;;;;;;-142.37;100.00;59669.53;4998318;28;20042;-65
2021/07/19 09:01:33;;;;;;;0.57;0.57;;;;;;;-142.37;100.00;59669.53;5016265;28;20041;-65
2021/07/19 09:03:58;;;;;;;0.80;0.40;;;;;;;-142.37;100.00;59669.53;5007964;28;20496;-65
2021/07/19 09:06:24;;;;;;;0.52;0.52;;;;;;;-142.37;100.00;59669.53;5011510;28;20056;-65
2021/07/19 09:08:50;;;;;;;1.10;0.60;;;;;;;-142.37;100.00;59669.53;5005863;28;20033;-65
2021/07/19 09:11:20;;;;;;;0.38;0.38;;;;;;;-142.37;100.00;59669.53;5011457;28;20022;-65
2021/07/19 09:14:00;;;;;;;0.50;0.40;;;;;;;-142.37;100.00;59669.53;5011052;28;20037;-64
2021/07/19 09:16:26;;;;;;;0.50;0.43;;;;;;;-142.37;100.00;59669.53;5011596;28;20034;-65
2021/07/19 09:19:07;;;;;;;0.82;0.40;;;;;;;-142.37;100.00;59669.53;5010648;28;20084;-65
2021/07/19 09:21:37;;;;;;;1.05;0.43;;;;;;;-142.37;100.00;59669.53;4996767;28;20030;-64
2021/07/19 09:24:07;;;;;;;0.82;0.40;;;;;;;-142.37;100.00;59669.53;5015956;28;20476;-64
2021/07/19 09:26:38;;;;;;;0.40;0.20;;;;;;;-142.37;100.00;59669.53;5014907;28;20093;-64
2021/07/19 09:29:08;;;;;;;0.88;0.40;;;;;;;-142.37;100.00;59669.53;5011007;28;20054;-65
2021/07/19 09:31:42;;;;;;;0.40;0.40;;;;;;;-142.37;100.00;59669.53;5013538;28;20026;-66
2021/07/19 09:34:16;;;;;;;0.93;0.40;;;;;;;-142.37;100.00;59669.53;5009433;28;20476;-66
2021/07/19 09:37:06;;;;;;;0.20;0.20;;;;;;;-142.37;100.00;59669.53;5006328;28;20030;-65
2021/07/19 09:39:37;;;;;;;0.70;0.22;;;;;;;-142.37;100.00;59669.53;5016053;28;20472;-64
2021/07/19 09:42:08;;;;;;;1.50;0.40;;;;;;;-142.37;100.00;59669.53;5013239;28;20499;-64
2021/07/19 09:44:34;;;;;;;0.30;0.30;;;;;;;-142.37;100.00;59669.53;5006305;28;20026;-65
2021/07/19 09:47:04;;;;;;;0.77;0.30;;;;;;;-142.37;100.00;59669.53;5012029;28;20059;-68
2021/07/19 09:49:32;;;;;;;1.60;0.55;;;;;;;-142.37;100.00;59669.53;5012514;28;20481;-69
2021/07/19 09:52:09;;;;;;;0.57;0.32;;;;;;;-142.37;100.00;59669.53;5006585;28;20040;-68
2021/07/19 09:54:38;;;;;;;1.13;0.30;;;;;;;-142.37;100.00;59669.53;5008696;28;20117;-67
2021/07/19 09:57:05;;;;;;;0.57;0.40;;;;;;;-142.37;100.00;59669.53;5006409;28;20022;-68
2021/07/19 09:59:31;;;;;;;0.50;0.40;;;;;;;-142.37;100.00;59669.53;4984418;28;20081;-68
2021/07/19 10:01:56;;;;;;;0.55;0.43;;;;;;;-142.37;100.00;59669.53;5010154;28;20062;-68
2021/07/19 10:04:22;;;;;;;1.35;0.50;;;;;;;-142.37;100.00;59669.53;5014384;28;20033;-68
2021/07/19 10:06:52;;;;;;;1.85;0.60;;;;;;;-142.37;100.00;59669.53;4989920;28;20386;-68
2021/07/19 10:09:20;;;;;;;0.50;0.50;;;;;;;-142.37;100.00;59669.53;4999352;28;20026;-68
2021/07/19 10:11:54;;;;;;;0.50;0.30;;;;;;;-142.37;100.00;59669.53;4978114;28;20022;-67
2021/07/19 10:14:30;;;;;;;0.77;0.40;;;;;;;-142.37;100.00;59669.53;4997176;28;20026;-67
2021/07/19 10:16:57;;;;;;;0.68;0.40;;;;;;;-142.37;100.00;59669.53;5015159;28;20408;-67
2021/07/19 10:19:23;;;;;;;1.30;0.47;;;;;;;-142.37;100.00;59669.53;5015246;28;20030;-67
2021/07/19 10:21:49;;;;;;;1.38;0.60;;;;;;;-142.37;100.00;59669.53;5015416;28;20022;-68
2021/07/19 10:24:15;;;;;;;0.63;0.40;;;;;;;-142.37;100.00;59669.53;5015156;28;20017;-68
2021/07/19 10:26:40;;;;;;;0.75;0.60;;;;;;;-142.37;100.00;59669.53;5014402;28;20057;-68
2021/07/19 10:29:06;;;;;;;1.10;0.50;;;;;;;-142.37;100.00;59669.53;4997644;28;20088;-68
2021/07/19 10:31:33;;;;;;;1.40;0.55;;;;;;;-142.37;100.00;59669.53;5014451;28;20032;-68
2021/07/19 10:34:01;;;;;;;0.93;0.57;;;;;;;-142.37;100.00;59669.53;4997259;28;20025;-68
2021/07/19 10:36:38;;;;;;;1.63;0.60;;;;;;;-142.37;100.00;59669.53;4997447;28;20484;-68
2021/07/19 10:39:11;;;;;;;0.50;0.40;;;;;;;-142.37;100.00;59669.53;5013914;28;20032;-68
2021/07/19 10:41:38;;;;;;;1.15;0.70;;;;;;;-142.37;100.00;59669.53;5014987;28;20101;-68
2021/07/19 10:44:06;;;;;;;1.00;0.30;;;;;;;-142.37;100.00;59669.53;5014755;28;20030;-68
2021/07/19 10:46:32;;;;;;;0.85;0.50;;;;;;;-142.37;100.00;59669.53;5014649;28;20022;-67
2021/07/19 10:49:12;;;;;;;0.38;0.30;;;;;;;-142.37;100.00;59669.53;5014718;28;20373;-67
2021/07/19 10:51:39;;;;;;;0.40;0.40;;;;;;;-142.37;100.00;59669.53;4997150;28;20022;-67
2021/07/19 10:54:43;;;;;;;1.67;0.57;;;;;;;-142.37;100.00;59669.53;5014591;28;20037;-68
2021/07/19 10:57:09;;;;;;;0.55;0.32;;;;;;;-142.37;100.00;59669.53;5014564;28;20033;-68
2021/07/19 10:59:38;;;;;;;0.73;0.50;;;;;;;-142.37;100.00;59669.53;5009823;28;20042;-68
2021/07/19 11:02:05;;;;;;;0.68;0.35;;;;;;;-142.37;100.00;59669.53;4994809;28;20465;-67
2021/07/19 11:04:32;;;;;;;0.40;0.30;;;;;;;-142.37;100.00;59669.53;5013449;28;20030;-68
2021/07/19 11:06:58;;;;;;;0.40;0.30;;;;;;;-142.37;100.00;59669.53;5013231;28;20018;-68
2021/07/19 11:09:36;;;;;;;0.65;0.50;;;;;;;-142.37;100.00;59669.53;5007041;28;20018;-68
2021/07/19 11:12:10;;;;;;;0.50;0.30;;;;;;;-142.37;100.00;59669.53;4994649;28;20358;-68